Time;durP1;ratioP1;P1;durP2;ratioP2;P2;SDS_P1;SDS_P2;PMS_P1;PMS_P2;Temp;Humidity;BMP_temperature;BMP_pressure;BME280_temperature;BME280_humidity;BME280_pressure;Samples;Min_cycle;Max_cycle;Signal;HPM_P1;HPM_P2
2023/03/29 00:00:58;;;;;;;5.35;2.67;;;6.80;59.50;;;;;;5033449;28;20032;-75
2023/03/29 00:03:25;;;;;;;4.75;2.65;;;6.80;59.30;;;;;;5032156;28;20026;-74
2023/03/29 00:05:56;;;;;;;3.65;2.10;;;6.80;59.20;;;;;;5033182;28;20033;-76
2023/03/29 00:08:24;;;;;;;7.65;2.47;;;6.90;59.00;;;;;;5033586;28;20466;-75
2023/03/29 00:10:50;;;;;;;3.33;1.90;;;7.00;59.10;;;;;;5033380;28;20037;-74
2023/03/29 00:13:16;;;;;;;3.45;2.10;;;7.10;59.00;;;;;;5033192;28;20458;-74
2023/03/29 00:15:42;;;;;;;6.13;2.40;;;7.10;58.90;;;;;;5033283;28;20037;-74
2023/03/29 00:18:08;;;;;;;3.97;2.30;;;7.20;58.60;;;;;;5033067;28;20083;-75
2023/03/29 00:20:34;;;;;;;3.97;2.00;;;7.20;58.30;;;;;;5033018;28;20437;-75
2023/03/29 00:23:00;;;;;;;3.00;1.80;;;7.30;57.70;;;;;;5033141;28;20462;-74
2023/03/29 00:25:26;;;;;;;4.20;1.92;;;7.30;57.30;;;;;;5033225;28;20029;-75
2023/03/29 00:27:51;;;;;;;6.22;2.22;;;7.30;55.20;;;;;;5033065;28;20032;-75
2023/03/29 00:30:17;;;;;;;4.22;2.05;;;7.30;54.60;;;;;;5033022;28;20308;-75
2023/03/29 00:32:43;;;;;;;3.55;2.30;;;7.30;54.50;;;;;;5032750;28;20441;-75
2023/03/29 00:35:08;;;;;;;5.10;2.30;;;7.30;54.60;;;;;;5032916;28;20033;-75
2023/03/29 00:37:34;;;;;;;3.40;2.40;;;7.30;54.70;;;;;;5032995;28;20017;-75
2023/03/29 00:40:00;;;;;;;5.18;2.25;;;7.30;54.80;;;;;;5032793;28;20048;-75
2023/03/29 00:42:26;;;;;;;2.50;2.15;;;7.30;54.00;;;;;;5032829;28;20355;-75
2023/03/29 00:44:59;;;;;;;5.53;2.30;;;7.30;53.90;;;;;;5031584;28;20025;-75
2023/03/29 00:47:33;;;;;;;3.05;1.88;;;7.40;53.90;;;;;;5033016;28;20034;-75
2023/03/29 00:50:04;;;;;;;5.00;2.22;;;7.40;53.80;;;;;;5032811;28;20030;-75
2023/03/29 00:52:31;;;;;;;3.78;2.10;;;7.50;53.70;;;;;;5032861;28;20044;-74
2023/03/29 00:55:01;;;;;;;4.75;2.10;;;7.50;50.00;;;;;;5031299;28;20103;-75
2023/03/29 00:57:28;;;;;;;2.55;1.77;;;7.60;49.70;;;;;;5032887;28;20021;-74
2023/03/29 00:59:55;;;;;;;3.88;2.10;;;7.60;50.30;;;;;;5032688;28;20430;-75
2023/03/29 01:02:25;;;;;;;3.30;2.17;;;7.70;50.70;;;;;;5032693;28;20040;-75
2023/03/29 01:05:02;;;;;;;4.32;2.03;;;7.70;50.90;;;;;;5032573;28;20018;-75
2023/03/29 01:07:42;;;;;;;3.78;1.73;;;7.80;50.70;;;;;;5032612;28;20026;-75
2023/03/29 01:10:29;;;;;;;2.67;1.55;;;7.80;46.60;;;;;;5032724;28;20027;-75
2023/03/29 01:13:09;;;;;;;4.88;1.90;;;7.80;47.10;;;;;;5031398;28;20032;-74
2023/03/29 01:15:39;;;;;;;7.50;2.35;;;7.80;45.60;;;;;;5032579;28;20030;-75
2023/03/29 01:18:05;;;;;;;3.08;1.90;;;7.80;45.50;;;;;;5032646;28;20028;-75
2023/03/29 01:21:05;;;;;;;2.60;1.63;;;7.90;45.20;;;;;;5036426;28;20021;-74
2023/03/29 01:23:49;;;;;;;4.82;2.40;;;7.90;45.30;;;;;;5036395;28;20032;-74
2023/03/29 01:26:41;;;;;;;5.60;1.83;;;8.00;44.90;;;;;;5036151;28;20537;-74
2023/03/29 01:29:32;;;;;;;3.15;2.20;;;8.00;45.30;;;;;;5036407;28;20026;-74
2023/03/29 01:32:10;;;;;;;5.68;2.47;;;7.90;45.80;;;;;;5036390;28;20024;-75
2023/03/29 01:35:15;;;;;;;5.35;2.10;;;8.00;45.90;;;;;;5036164;28;20481;-75
2023/03/29 01:37:48;;;;;;;4.40;1.88;;;7.90;46.60;;;;;;5035707;28;20034;-75
2023/03/29 01:40:14;;;;;;;3.97;2.00;;;8.00;46.00;;;;;;5035858;28;20038;-75
2023/03/29 01:42:56;;;;;;;4.40;1.40;;;8.10;45.20;;;;;;5035956;28;20021;-75
2023/03/29 01:45:40;;;;;;;;;;;8.20;45.60;;;;;;5091011;27;20393;-75
2023/03/29 01:48:09;;;;;;;3.58;1.65;;;8.20;49.20;;;;;;5090616;28;19908;-75
2023/03/29 01:50:45;;;;;;;2.20;1.20;;;8.00;51.80;;;;;;5090668;28;20099;-75
2023/03/29 01:53:19;;;;;;;2.75;1.15;;;7.90;53.10;;;;;;5090545;28;20042;-75
2023/03/29 01:55:51;;;;;;;2.45;1.23;;;7.80;54.40;;;;;;5090541;28;20025;-75
2023/03/29 01:58:19;;;;;;;2.53;1.00;;;7.70;55.50;;;;;;5090482;28;20016;-75
2023/03/29 02:00:45;;;;;;;4.57;1.00;;;7.70;56.30;;;;;;5089112;28;20024;-76
2023/03/29 02:03:16;;;;;;;4.15;1.00;;;7.70;56.50;;;;;;5090184;28;20044;-76
2023/03/29 02:05:43;;;;;;;2.60;1.23;;;7.70;56.40;;;;;;5090375;28;20028;-76
2023/03/29 02:08:12;;;;;;;3.25;1.13;;;7.60;56.80;;;;;;5090248;28;20025;-75
2023/03/29 02:10:38;;;;;;;2.28;0.93;;;7.60;57.00;;;;;;5090207;28;20031;-75
2023/03/29 02:13:04;;;;;;;2.55;1.05;;;7.70;56.60;;;;;;5090297;28;20017;-75
2023/03/29 02:15:30;;;;;;;2.25;1.00;;;7.70;56.70;;;;;;5090177;28;20024;-75
2023/03/29 02:17:55;;;;;;;1.42;0.73;;;7.70;56.50;;;;;;5088856;28;20027;-76
2023/03/29 02:20:48;;;;;;;1.33;0.98;;;7.70;56.40;;;;;;5090221;28;20020;-76
2023/03/29 02:23:20;;;;;;;1.75;0.68;;;7.80;56.20;;;;;;5086712;28;20101;-75
2023/03/29 02:25:49;;;;;;;1.38;0.85;;;7.90;56.30;;;;;;5090142;28;20042;-76
2023/03/29 02:28:14;;;;;;;2.85;0.93;;;7.90;56.00;;;;;;5089905;28;20103;-75
2023/03/29 02:31:03;;;;;;;0.93;0.50;;;7.90;55.90;;;;;;5089764;28;20062;-75
2023/03/29 02:33:57;;;;;;;4.05;0.93;;;8.00;55.60;;;;;;5089808;28;20119;-76
2023/03/29 02:36:32;;;;;;;4.22;0.80;;;8.00;55.60;;;;;;5089659;28;20024;-76
2023/03/29 02:39:02;;;;;;;0.90;0.80;;;8.00;55.30;;;;;;5089564;28;20032;-76
2023/03/29 02:41:28;;;;;;;6.78;1.33;;;8.10;55.50;;;;;;5089831;28;20046;-76
2023/03/29 02:43:55;;;;;;;2.83;0.73;;;8.10;55.90;;;;;;5089378;28;20493;-76
2023/03/29 02:46:22;;;;;;;2.97;1.20;;;8.10;56.00;;;;;;5089379;28;20031;-76
2023/03/29 02:48:50;;;;;;;2.35;0.80;;;8.00;56.00;;;;;;5089451;28;20020;-75
2023/03/29 02:51:19;;;;;;;2.20;0.98;;;8.00;56.10;;;;;;5089318;28;20035;-75
2023/03/29 02:53:51;;;;;;;2.78;1.35;;;8.10;56.30;;;;;;5089380;28;20019;-75
2023/03/29 02:56:19;;;;;;;2.35;1.33;;;8.10;56.50;;;;;;5078283;28;20020;-76
2023/03/29 02:58:45;;;;;;;5.57;0.90;;;8.10;56.10;;;;;;5075718;28;20379;-75
2023/03/29 03:01:11;;;;;;;2.75;0.85;;;8.00;55.80;;;;;;5075710;28;20032;-76
2023/03/29 03:03:37;;;;;;;1.55;0.80;;;7.90;55.30;;;;;;5075346;28;20104;-75
2023/03/29 03:06:03;;;;;;;4.13;1.02;;;8.00;55.70;;;;;;5075228;28;20112;-75
2023/03/29 03:08:29;;;;;;;2.78;1.13;;;8.00;55.70;;;;;;5075398;28;20048;-76
2023/03/29 03:10:54;;;;;;;3.53;1.42;;;8.00;56.00;;;;;;5075532;28;20086;-74
2023/03/29 03:13:20;;;;;;;4.38;1.50;;;8.00;55.60;;;;;;5075220;28;20029;-74
2023/03/29 03:15:47;;;;;;;1.83;1.00;;;8.00;54.70;;;;;;5075411;28;20381;-76
2023/03/29 03:18:14;;;;;;;3.08;0.93;;;8.00;54.00;;;;;;5075384;28;20048;-74
2023/03/29 03:20:40;;;;;;;1.80;0.88;;;8.00;53.30;;;;;;5075133;28;20025;-75
2023/03/29 03:23:07;;;;;;;2.67;0.70;;;8.10;52.80;;;;;;5075230;28;20025;-75
2023/03/29 03:25:34;;;;;;;3.47;0.85;;;8.10;52.70;;;;;;5075273;28;20025;-74
2023/03/29 03:28:00;;;;;;;2.95;1.52;;;8.10;52.80;;;;;;5075172;28;20027;-75
2023/03/29 03:30:26;;;;;;;2.38;1.60;;;8.20;52.80;;;;;;5075163;28;20107;-75
2023/03/29 03:32:53;;;;;;;4.38;1.35;;;8.20;52.60;;;;;;5073857;28;20123;-75
2023/03/29 03:35:20;;;;;;;1.70;1.02;;;8.20;52.40;;;;;;5075022;28;20031;-74
2023/03/29 03:37:45;;;;;;;2.72;0.95;;;8.20;52.40;;;;;;5075025;28;20028;-75
2023/03/29 03:40:12;;;;;;;1.83;1.05;;;8.30;52.10;;;;;;5075054;28;20025;-75
2023/03/29 03:42:41;;;;;;;3.13;1.00;;;8.30;51.80;;;;;;5074920;28;20170;-75
2023/03/29 03:45:07;;;;;;;1.42;0.90;;;8.30;51.50;;;;;;5074584;28;20060;-75
2023/03/29 03:47:36;;;;;;;2.95;1.25;;;8.30;51.60;;;;;;5074775;28;20079;-75
2023/03/29 03:50:03;;;;;;;1.30;1.00;;;8.20;51.60;;;;;;5074540;28;20020;-74
2023/03/29 03:52:28;;;;;;;5.38;1.58;;;8.30;51.70;;;;;;5074449;28;20020;-74
2023/03/29 03:54:54;;;;;;;3.22;1.38;;;8.30;51.90;;;;;;5074568;28;20023;-74
2023/03/29 03:57:21;;;;;;;1.98;1.10;;;8.20;51.70;;;;;;5074589;28;20055;-74
2023/03/29 03:59:47;;;;;;;3.55;1.35;;;8.20;51.90;;;;;;5074505;28;20477;-74
2023/03/29 04:02:14;;;;;;;5.40;1.50;;;8.20;50.60;;;;;;5074256;28;20021;-74
2023/03/29 04:04:40;;;;;;;3.33;1.45;;;8.20;47.60;;;;;;5074354;28;20038;-74
2023/03/29 04:07:05;;;;;;;4.30;1.17;;;8.40;44.60;;;;;;5073491;28;20096;-74
2023/03/29 04:09:32;;;;;;;4.35;1.15;;;8.60;47.10;;;;;;5074341;28;20032;-74
2023/03/29 04:12:00;;;;;;;4.28;1.40;;;8.60;47.90;;;;;;5074270;28;20028;-73
2023/03/29 04:14:26;;;;;;;2.65;1.05;;;8.60;48.30;;;;;;5074260;28;20024;-74
2023/03/29 04:16:53;;;;;;;2.75;1.20;;;8.60;49.60;;;;;;5074174;28;20073;-73
2023/03/29 04:19:19;;;;;;;4.15;1.05;;;8.50;50.50;;;;;;5074024;28;20549;-74
2023/03/29 04:21:46;;;;;;;4.90;1.20;;;8.60;51.30;;;;;;5074066;28;20132;-74
2023/03/29 04:24:12;;;;;;;2.33;1.33;;;8.50;51.90;;;;;;5073942;28;20416;-74
2023/03/29 04:26:38;;;;;;;2.22;0.75;;;8.50;52.00;;;;;;5072578;28;20032;-75
2023/03/29 04:29:04;;;;;;;2.20;0.95;;;8.50;52.70;;;;;;5073650;28;20020;-74
2023/03/29 04:31:30;;;;;;;2.42;1.00;;;8.50;53.20;;;;;;5074002;28;20099;-74
2023/03/29 04:33:56;;;;;;;2.42;0.93;;;8.50;53.50;;;;;;5073928;28;20063;-74
2023/03/29 04:36:22;;;;;;;4.25;0.85;;;8.40;53.90;;;;;;5073953;28;20482;-74
2023/03/29 04:38:47;;;;;;;10.80;1.38;;;8.40;54.10;;;;;;5073815;28;20469;-74
2023/03/29 04:41:14;;;;;;;2.28;1.10;;;8.50;54.30;;;;;;5073736;28;20100;-74
2023/03/29 04:43:40;;;;;;;3.97;1.00;;;8.50;54.40;;;;;;5073381;28;20123;-74
2023/03/29 04:46:06;;;;;;;2.83;0.93;;;8.40;54.60;;;;;;5073531;28;20031;-74
2023/03/29 04:48:32;;;;;;;3.42;1.25;;;8.40;54.70;;;;;;5073417;28;20052;-74
2023/03/29 04:50:58;;;;;;;3.58;0.90;;;8.50;54.40;;;;;;5072353;28;20094;-74
2023/03/29 04:53:24;;;;;;;4.25;2.33;;;8.50;54.20;;;;;;5073701;28;20048;-74
2023/03/29 04:55:51;;;;;;;1.52;0.70;;;8.50;54.40;;;;;;5073434;28;20107;-75
2023/03/29 04:58:17;;;;;;;1.80;1.13;;;8.50;54.10;;;;;;5073409;28;20107;-73
2023/03/29 05:00:42;;;;;;;1.55;0.80;;;8.50;53.90;;;;;;5073347;28;20108;-74
2023/03/29 05:03:12;;;;;;;1.85;0.63;;;8.60;53.40;;;;;;5073297;28;20025;-75
2023/03/29 05:05:38;;;;;;;3.92;1.02;;;8.60;53.30;;;;;;5072861;28;20587;-75
2023/03/29 05:08:03;;;;;;;3.10;1.30;;;8.70;51.90;;;;;;5073271;28;20075;-75
2023/03/29 05:10:29;;;;;;;2.80;1.50;;;8.70;51.60;;;;;;5073025;28;20043;-75
2023/03/29 05:12:55;;;;;;;4.07;1.25;;;8.70;51.60;;;;;;5072951;28;20024;-74
2023/03/29 05:15:20;;;;;;;2.33;1.02;;;8.70;51.50;;;;;;5072924;28;20017;-75
2023/03/29 05:17:47;;;;;;;1.83;0.80;;;8.70;51.70;;;;;;5072978;28;20032;-75
2023/03/29 05:20:13;;;;;;;6.07;1.27;;;8.80;51.80;;;;;;5072765;28;20069;-75
2023/03/29 05:22:39;;;;;;;1.83;1.02;;;8.80;52.20;;;;;;5072706;28;20035;-75
2023/03/29 05:25:06;;;;;;;1.23;0.80;;;8.80;52.60;;;;;;5072811;28;20024;-76
2023/03/29 05:27:33;;;;;;;2.08;1.02;;;8.80;53.10;;;;;;5072741;28;20100;-75
2023/03/29 05:30:00;;;;;;;11.02;5.65;;;8.80;53.70;;;;;;5072660;28;20036;-75
2023/03/29 05:32:27;;;;;;;7.20;3.00;;;8.90;54.40;;;;;;5072648;28;20035;-76
2023/03/29 05:34:52;;;;;;;5.18;3.15;;;8.80;54.70;;;;;;5072737;28;20431;-76
2023/03/29 05:37:18;;;;;;;5.07;3.30;;;8.80;54.90;;;;;;5072660;28;20024;-76
2023/03/29 05:39:44;;;;;;;6.93;4.40;;;8.80;55.10;;;;;;5072847;28;20028;-75
2023/03/29 05:42:14;;;;;;;6.57;2.75;;;8.80;55.40;;;;;;5072591;28;20020;-75
2023/03/29 05:44:40;;;;;;;2.78;1.70;;;8.80;55.60;;;;;;5072553;28;20048;-75
2023/03/29 05:47:06;;;;;;;1.55;1.08;;;8.80;55.50;;;;;;5072856;28;20017;-76
2023/03/29 05:49:32;;;;;;;2.05;1.25;;;8.80;55.40;;;;;;5071372;28;20032;-75
2023/03/29 05:51:58;;;;;;;2.67;1.42;;;8.80;54.90;;;;;;5072861;28;20479;-76
2023/03/29 05:54:25;;;;;;;4.50;1.20;;;8.80;54.20;;;;;;5071587;28;20393;-76
2023/03/29 05:56:51;;;;;;;4.60;1.30;;;8.70;54.10;;;;;;5072658;28;20051;-76
2023/03/29 05:59:18;;;;;;;4.68;1.27;;;8.70;53.90;;;;;;5072650;28;20458;-76
2023/03/29 06:01:46;;;;;;;2.28;0.95;;;8.70;54.00;;;;;;5071372;28;20052;-76
2023/03/29 06:04:13;;;;;;;5.57;2.03;;;8.70;54.10;;;;;;5072732;28;20033;-75
2023/03/29 06:06:39;;;;;;;8.63;3.75;;;8.70;54.30;;;;;;5072643;28;20028;-76
2023/03/29 06:09:05;;;;;;;14.43;4.40;;;8.80;53.80;;;;;;5073382;28;20024;-76
2023/03/29 06:11:31;;;;;;;7.25;3.67;;;8.80;53.00;;;;;;5071660;28;20025;-76
2023/03/29 06:13:57;;;;;;;4.28;1.83;;;8.90;51.70;;;;;;5071199;28;20090;-76
2023/03/29 06:16:24;;;;;;;2.05;1.27;;;8.90;50.40;;;;;;5072614;28;20052;-75
2023/03/29 06:18:50;;;;;;;1.35;1.13;;;8.90;49.60;;;;;;5074393;28;20423;-76
2023/03/29 06:21:16;;;;;;;3.88;1.75;;;8.90;48.90;;;;;;5072717;28;20020;-76
2023/03/29 06:23:42;;;;;;;4.00;2.35;;;9.00;49.00;;;;;;5073031;28;20384;-76
2023/03/29 06:26:09;;;;;;;3.80;1.40;;;9.10;49.00;;;;;;5072191;28;20481;-75
2023/03/29 06:28:35;;;;;;;4.07;1.27;;;9.10;49.20;;;;;;5071391;28;20103;-75
2023/03/29 06:31:03;;;;;;;8.07;1.98;;;9.10;49.00;;;;;;5072956;28;20111;-75
2023/03/29 06:33:31;;;;;;;5.22;1.58;;;9.10;49.20;;;;;;5076636;28;20074;-74
2023/03/29 06:35:57;;;;;;;1.98;1.20;;;9.20;49.10;;;;;;5076237;28;20048;-75
2023/03/29 06:38:25;;;;;;;2.80;1.17;;;9.30;49.40;;;;;;5076022;28;20103;-76
2023/03/29 06:40:51;;;;;;;5.50;1.73;;;9.30;49.40;;;;;;5075129;28;20028;-76
2023/03/29 06:43:17;;;;;;;4.15;1.45;;;9.40;49.50;;;;;;5075034;28;20036;-76
2023/03/29 06:45:43;;;;;;;6.43;1.70;;;9.40;50.00;;;;;;5074952;28;20028;-76
2023/03/29 06:48:10;;;;;;;2.97;1.27;;;9.50;50.20;;;;;;5074886;28;20028;-75
2023/03/29 06:50:36;;;;;;;6.20;2.15;;;9.50;49.50;;;;;;5074915;28;20054;-75
2023/03/29 06:53:03;;;;;;;6.07;1.92;;;9.60;48.70;;;;;;5076231;28;20099;-77
2023/03/29 06:55:28;;;;;;;3.85;2.15;;;9.70;48.60;;;;;;5074573;28;20028;-75
2023/03/29 06:57:54;;;;;;;3.97;1.70;;;9.80;48.30;;;;;;5075830;28;20027;-74
2023/03/29 07:00:29;;;;;;;6.28;1.42;;;9.80;46.80;;;;;;5076017;28;20033;-74
2023/03/29 07:02:57;;;;;;;6.05;1.45;;;9.90;42.80;;;;;;5074719;28;20020;-74
2023/03/29 07:05:26;;;;;;;3.17;1.33;;;10.00;42.40;;;;;;5074465;28;20064;-76
2023/03/29 07:07:56;;;;;;;3.70;1.00;;;10.10;41.10;;;;;;5075605;28;20020;-75
2023/03/29 07:10:44;;;;;;;14.15;2.67;;;10.20;40.80;;;;;;5074344;28;20119;-74
2023/03/29 07:13:14;;;;;;;2.78;1.45;;;10.40;45.40;;;;;;5074112;28;20102;-76
2023/03/29 07:15:42;;;;;;;2.13;1.35;;;10.50;40.60;;;;;;5073873;28;20043;-72
2023/03/29 07:18:09;;;;;;;3.75;1.10;;;10.60;40.20;;;;;;5074370;28;20078;-75
2023/03/29 07:20:37;;;;;;;4.80;1.00;;;10.60;39.90;;;;;;5073025;28;20473;-74
2023/03/29 07:23:03;;;;;;;4.75;1.20;;;10.70;40.10;;;;;;5073959;28;20465;-75
2023/03/29 07:25:30;;;;;;;3.38;1.50;;;10.70;39.90;;;;;;5075014;28;20039;-75
2023/03/29 07:27:56;;;;;;;2.25;1.23;;;10.90;40.40;;;;;;5073515;28;20058;-75
2023/03/29 07:30:24;;;;;;;2.65;1.20;;;10.90;40.30;;;;;;5074043;28;20109;-75
2023/03/29 07:32:51;;;;;;;2.88;1.13;;;11.00;40.60;;;;;;5075035;28;20397;-75
2023/03/29 07:35:17;;;;;;;4.15;1.10;;;10.90;41.10;;;;;;5073566;28;20032;-75
2023/03/29 07:37:43;;;;;;;1.88;1.00;;;11.00;40.80;;;;;;5074696;28;20028;-75
2023/03/29 07:40:15;;;;;;;3.35;1.45;;;11.00;40.70;;;;;;5074369;28;20021;-76
2023/03/29 07:42:42;;;;;;;3.63;0.80;;;11.10;40.70;;;;;;5074768;28;20027;-74
2023/03/29 07:45:09;;;;;;;2.95;1.20;;;11.20;41.20;;;;;;5074417;28;20063;-74
2023/03/29 07:47:34;;;;;;;4.18;1.27;;;11.20;39.70;;;;;;5074708;28;20212;-75
2023/03/29 07:50:00;;;;;;;2.05;1.05;;;11.40;39.40;;;;;;5074494;28;20472;-75
2023/03/29 07:52:29;;;;;;;1.60;1.02;;;11.40;39.20;;;;;;5074240;28;20021;-74
2023/03/29 07:54:55;;;;;;;3.80;1.10;;;11.50;40.00;;;;;;5070552;28;20028;-75
2023/03/29 07:57:25;;;;;;;2.55;1.67;;;11.60;38.60;;;;;;5073173;28;20477;-73
2023/03/29 07:59:51;;;;;;;4.70;0.90;;;11.60;38.80;;;;;;5071652;28;20062;-74
2023/03/29 08:02:18;;;;;;;2.95;1.13;;;11.70;37.90;;;;;;5072954;28;20030;-75
2023/03/29 08:04:44;;;;;;;3.78;0.80;;;11.80;37.90;;;;;;5072949;28;20028;-75
2023/03/29 08:07:11;;;;;;;2.50;1.00;;;11.80;37.70;;;;;;5071838;28;20036;-74
2023/03/29 08:09:37;;;;;;;2.10;0.88;;;11.80;37.20;;;;;;5073544;28;20085;-76
2023/03/29 08:12:02;;;;;;;1.23;0.75;;;11.80;37.00;;;;;;5072210;28;20489;-75
2023/03/29 08:14:29;;;;;;;3.72;0.88;;;11.70;37.30;;;;;;5074144;28;20397;-75
2023/03/29 08:16:55;;;;;;;2.38;1.20;;;11.80;36.90;;;;;;5074235;28;20056;-76
2023/03/29 08:19:21;;;;;;;4.55;1.00;;;11.70;36.90;;;;;;5072972;28;20094;-77
2023/03/29 08:21:46;;;;;;;2.17;0.73;;;11.80;37.10;;;;;;5072216;28;20024;-74
2023/03/29 08:24:16;;;;;;;4.10;0.90;;;11.80;37.20;;;;;;5073115;28;20036;-75
2023/03/29 08:26:42;;;;;;;2.47;0.90;;;11.80;36.90;;;;;;5072612;28;20020;-75
2023/03/29 08:29:09;;;;;;;0.73;0.60;;;11.80;37.00;;;;;;5072712;28;20036;-74
2023/03/29 08:31:35;;;;;;;2.22;0.77;;;11.80;37.30;;;;;;5072634;28;20559;-74
2023/03/29 08:34:02;;;;;;;1.98;1.08;;;11.90;37.60;;;;;;5072720;28;20432;-75
2023/03/29 08:36:28;;;;;;;2.60;1.10;;;11.90;37.90;;;;;;5072409;28;20036;-75
2023/03/29 08:38:54;;;;;;;4.05;0.93;;;11.90;37.30;;;;;;5072846;28;20028;-74
2023/03/29 08:41:41;;;;;;;6.43;1.10;;;12.00;37.80;;;;;;5072941;28;20032;-75
2023/03/29 08:44:48;;;;;;;1.90;0.88;;;12.00;38.00;;;;;;5072549;28;20044;-75
2023/03/29 08:47:28;;;;;;;4.20;0.90;;;12.10;37.30;;;;;;5051335;28;20116;-75
2023/03/29 08:49:55;;;;;;;2.40;0.80;;;12.10;37.50;;;;;;5071105;28;20029;-74
2023/03/29 08:52:40;;;;;;;3.75;1.30;;;12.20;37.60;;;;;;5072252;28;20024;-75
2023/03/29 08:55:12;;;;;;;3.20;1.08;;;12.40;37.10;;;;;;5072950;28;20029;-74
2023/03/29 08:57:47;;;;;;;2.25;1.05;;;12.40;37.00;;;;;;5071959;28;20477;-76
2023/03/29 09:00:33;;;;;;;3.08;1.00;;;12.40;36.60;;;;;;5071966;28;20087;-75
2023/03/29 09:03:01;;;;;;;;;;;12.60;36.40;;;;;;5076908;28;20063;-73
2023/03/29 09:05:36;;;;;;;1.85;0.80;;;12.70;36.40;;;;;;5073327;28;19919;-75
2023/03/29 09:08:02;;;;;;;2.40;1.08;;;12.80;36.30;;;;;;5073471;28;20016;-75
2023/03/29 09:10:41;;;;;;;2.03;0.95;;;12.80;36.50;;;;;;5072162;28;20025;-75
2023/03/29 09:13:25;;;;;;;3.78;1.00;;;12.70;36.20;;;;;;5072864;28;20087;-76
2023/03/29 09:15:54;;;;;;;3.70;1.20;;;12.90;36.10;;;;;;5071772;28;20050;-74
2023/03/29 09:19:01;;;;;;;2.33;1.00;;;12.90;36.30;;;;;;5072742;28;20055;-75
2023/03/29 09:21:37;;;;;;;3.40;0.95;;;12.80;36.30;;;;;;5072719;28;20036;-77
2023/03/29 09:24:14;;;;;;;2.95;0.98;;;12.90;36.90;;;;;;5072864;28;20024;-75
2023/03/29 09:26:59;;;;;;;4.28;1.08;;;12.80;36.90;;;;;;5071300;28;20017;-75
2023/03/29 09:30:24;;;;;;;3.13;1.50;;;13.00;37.10;;;;;;5072296;28;20097;-75
2023/03/29 09:32:59;;;;;;;4.93;1.40;;;13.20;37.30;;;;;;5065602;28;20478;-75
2023/03/29 09:35:42;;;;;;;2.47;0.82;;;13.40;35.90;;;;;;5072433;28;20481;-75
2023/03/29 09:38:11;;;;;;;3.17;1.00;;;13.50;36.20;;;;;;5072380;28;20032;-76
2023/03/29 09:41:20;;;;;;;3.50;1.00;;;13.40;35.90;;;;;;5071590;28;20020;-75
2023/03/29 09:43:49;;;;;;;4.20;1.00;;;13.40;35.90;;;;;;5071454;28;20071;-76
2023/03/29 09:46:27;;;;;;;2.03;0.82;;;13.50;35.70;;;;;;5072683;28;20024;-75
2023/03/29 09:48:55;;;;;;;5.32;1.45;;;13.50;35.40;;;;;;5071994;28;20021;-76
2023/03/29 09:51:25;;;;;;;5.68;1.08;;;13.50;35.00;;;;;;5071464;28;20028;-76
2023/03/29 09:53:51;;;;;;;3.15;1.17;;;13.50;35.90;;;;;;5072839;28;20086;-73
2023/03/29 09:56:17;;;;;;;2.83;1.05;;;13.70;35.60;;;;;;5071428;28;20031;-75
2023/03/29 09:58:45;;;;;;;1.30;1.08;;;13.70;35.30;;;;;;5054608;28;20115;-75
2023/03/29 10:01:16;;;;;;;6.57;1.42;;;13.80;35.20;;;;;;5071030;28;20499;-75
2023/03/29 10:03:46;;;;;;;1.85;1.00;;;13.80;35.40;;;;;;5071203;28;20059;-75
2023/03/29 10:06:13;;;;;;;5.32;1.45;;;13.70;35.40;;;;;;5074214;28;20032;-75
2023/03/29 10:08:43;;;;;;;2.08;0.85;;;13.60;35.20;;;;;;5076004;28;20020;-74
2023/03/29 10:11:16;;;;;;;2.60;1.38;;;13.50;35.70;;;;;;5073785;28;20064;-76
2023/03/29 10:13:55;;;;;;;2.60;1.15;;;13.50;36.00;;;;;;5072212;28;20103;-76
2023/03/29 10:16:29;;;;;;;2.75;1.23;;;13.50;36.20;;;;;;5072214;28;20474;-77
2023/03/29 10:18:55;;;;;;;5.68;1.30;;;13.60;36.10;;;;;;5073878;28;20025;-76
2023/03/29 10:21:22;;;;;;;4.95;1.42;;;13.60;36.50;;;;;;5074599;28;20025;-76
2023/03/29 10:23:55;;;;;;;3.08;1.30;;;13.70;36.80;;;;;;5075885;28;20064;-74
2023/03/29 10:26:30;;;;;;;6.25;1.52;;;13.80;36.30;;;;;;5075410;28;20028;-76
2023/03/29 10:28:59;;;;;;;2.83;0.80;;;14.10;36.30;;;;;;5073432;28;20023;-76
2023/03/29 10:31:28;;;;;;;4.88;1.27;;;14.40;36.70;;;;;;5073739;28;20591;-76
2023/03/29 10:33:56;;;;;;;3.13;0.93;;;14.70;35.00;;;;;;5074588;28;20021;-76
2023/03/29 10:36:25;;;;;;;2.65;1.30;;;14.90;35.00;;;;;;5073915;28;20108;-77
2023/03/29 10:38:55;;;;;;;1.50;0.77;;;15.10;34.40;;;;;;5073191;28;20021;-77
2023/03/29 10:41:21;;;;;;;4.05;1.48;;;15.20;34.00;;;;;;5071486;28;20021;-74
2023/03/29 10:43:49;;;;;;;2.83;1.15;;;15.20;34.20;;;;;;5073381;28;20044;-77
2023/03/29 10:46:39;;;;;;;6.38;1.10;;;15.10;33.60;;;;;;5072923;28;20021;-77
2023/03/29 10:49:17;;;;;;;2.00;0.93;;;14.90;33.60;;;;;;5071289;28;20017;-76
2023/03/29 10:51:45;;;;;;;4.93;0.93;;;14.70;34.50;;;;;;5070482;28;20051;-76
2023/03/29 10:54:13;;;;;;;3.42;1.20;;;14.50;33.60;;;;;;5072873;28;20317;-74
2023/03/29 10:56:42;;;;;;;6.05;1.00;;;14.60;33.30;;;;;;5071388;28;20023;-76
2023/03/29 10:59:13;;;;;;;2.78;0.88;;;14.50;32.80;;;;;;5072522;28;20058;-76
2023/03/29 11:01:57;;;;;;;4.70;0.95;;;14.60;33.50;;;;;;5070419;28;20020;-76
2023/03/29 11:04:25;;;;;;;2.97;0.70;;;14.60;33.40;;;;;;5071965;28;20085;-76
2023/03/29 11:07:09;;;;;;;2.00;1.00;;;14.80;33.80;;;;;;5072633;28;20020;-75
2023/03/29 11:09:51;;;;;;;2.58;0.75;;;14.80;32.00;;;;;;5073262;28;20027;-77
2023/03/29 11:12:43;;;;;;;1.77;0.82;;;14.80;29.80;;;;;;5073013;28;20017;-76
2023/03/29 11:15:24;;;;;;;3.10;1.10;;;14.70;30.90;;;;;;5071324;28;20025;-76
2023/03/29 11:18:13;;;;;;;4.30;1.85;;;14.70;30.40;;;;;;5072464;28;20016;-77
2023/03/29 11:21:00;;;;;;;6.55;1.38;;;14.70;31.40;;;;;;5071457;28;20033;-76
2023/03/29 11:23:58;;;;;;;3.13;0.88;;;14.70;31.60;;;;;;5071340;28;20116;-74
2023/03/29 11:26:45;;;;;;;2.13;0.90;;;14.70;31.40;;;;;;5070907;28;20032;-75
2023/03/29 11:29:30;;;;;;;2.20;0.70;;;14.70;32.20;;;;;;5071500;28;20012;-77
2023/03/29 11:32:18;;;;;;;1.45;0.85;;;14.50;32.60;;;;;;5073483;28;20319;-76
2023/03/29 11:35:02;;;;;;;3.08;0.82;;;14.50;34.10;;;;;;5070715;28;20029;-78
2023/03/29 11:37:34;;;;;;;4.38;0.95;;;14.50;33.10;;;;;;5071415;28;20031;-76
2023/03/29 11:40:45;;;;;;;2.78;0.80;;;14.50;32.80;;;;;;5069497;28;20078;-77
2023/03/29 11:43:19;;;;;;;1.58;0.73;;;14.40;32.50;;;;;;5072510;28;20043;-76
2023/03/29 11:45:54;;;;;;;4.45;2.03;;;14.40;33.00;;;;;;5070790;28;20056;-76
2023/03/29 11:48:22;;;;;;;;;;;14.50;33.10;;;;;;5070215;28;20020;-75
2023/03/29 11:51:05;;;;;;;1.80;0.88;;;14.60;33.10;;;;;;5072468;28;19904;-75
2023/03/29 11:53:42;;;;;;;5.22;0.88;;;14.70;32.60;;;;;;5071631;28;20054;-76
2023/03/29 11:56:16;;;;;;;3.78;0.82;;;14.70;32.50;;;;;;5071112;28;20059;-75
2023/03/29 11:58:49;;;;;;;2.03;0.82;;;14.70;32.50;;;;;;5070375;28;20090;-76
2023/03/29 12:01:28;;;;;;;3.38;1.20;;;14.80;32.70;;;;;;5072921;28;20020;-76
2023/03/29 12:03:58;;;;;;;2.42;1.00;;;15.00;33.40;;;;;;5063922;28;20020;-74
2023/03/29 12:06:47;;;;;;;3.30;0.80;;;15.10;32.40;;;;;;5076577;28;20374;-77
2023/03/29 12:09:34;;;;;;;1.40;0.65;;;15.20;32.00;;;;;;5071811;28;20108;-76
2023/03/29 12:12:25;;;;;;;2.47;0.88;;;15.20;31.60;;;;;;5068502;28;20056;-76
2023/03/29 12:15:05;;;;;;;3.25;0.90;;;15.20;30.90;;;;;;5070551;28;20025;-76
2023/03/29 12:17:45;;;;;;;1.92;1.00;;;15.10;31.10;;;;;;5070681;28;20025;-76
2023/03/29 12:20:22;;;;;;;5.32;0.90;;;15.10;31.80;;;;;;5070875;28;20464;-76
2023/03/29 12:22:49;;;;;;;3.33;0.60;;;15.10;31.90;;;;;;5070559;28;20027;-76
2023/03/29 12:25:22;;;;;;;2.08;0.75;;;15.10;31.30;;;;;;5071513;28;20059;-74
2023/03/29 12:28:32;;;;;;;2.42;1.10;;;15.10;31.00;;;;;;5071198;28;20013;-76
2023/03/29 12:31:03;;;;;;;2.58;0.80;;;15.10;31.20;;;;;;5071583;28;20027;-76
2023/03/29 12:33:55;;;;;;;3.67;0.75;;;15.00;30.70;;;;;;5072657;28;20405;-75
2023/03/29 12:36:36;;;;;;;1.52;0.82;;;15.00;30.70;;;;;;5052551;28;20037;-76
2023/03/29 12:39:02;;;;;;;2.88;1.00;;;15.10;31.60;;;;;;5068920;28;20020;-76
2023/03/29 12:41:34;;;;;;;2.60;0.88;;;15.10;31.20;;;;;;5070572;28;20068;-76
2023/03/29 12:44:02;;;;;;;3.08;0.68;;;15.10;32.10;;;;;;5068595;28;20070;-75
2023/03/29 12:46:32;;;;;;;1.77;0.73;;;15.20;30.80;;;;;;5071135;28;20101;-75
2023/03/29 12:49:08;;;;;;;3.90;0.68;;;15.30;30.60;;;;;;5068345;28;20029;-75
2023/03/29 12:51:35;;;;;;;1.90;0.60;;;15.30;29.50;;;;;;5070360;28;20036;-74
2023/03/29 12:54:11;;;;;;;3.05;0.60;;;15.20;28.80;;;;;;5071184;28;20456;-76
2023/03/29 12:56:50;;;;;;;3.95;0.85;;;15.20;27.80;;;;;;5070603;28;20019;-77
2023/03/29 12:59:36;;;;;;;2.70;0.70;;;15.20;28.00;;;;;;5070908;28;20107;-78
2023/03/29 13:02:16;;;;;;;3.83;0.80;;;15.30;28.30;;;;;;5068159;28;20025;-77
2023/03/29 13:04:56;;;;;;;2.10;0.85;;;15.20;27.60;;;;;;5068532;28;20028;-77
2023/03/29 13:07:30;;;;;;;1.38;0.80;;;15.20;28.20;;;;;;5069710;28;20076;-78
2023/03/29 13:10:02;;;;;;;1.75;0.68;;;15.30;27.40;;;;;;5070960;28;20024;-77
2023/03/29 13:12:53;;;;;;;7.10;1.00;;;15.40;27.70;;;;;;5072133;28;20025;-75
2023/03/29 13:15:24;;;;;;;1.55;0.80;;;15.60;28.10;;;;;;5067562;28;20032;-76